Time;durP1;ratioP1;P1;durP2;ratioP2;P2;SDS_P1;SDS_P2;PMS_P1;PMS_P2;Temp;Humidity;BMP_temperature;BMP_pressure;BME280_temperature;BME280_humidity;BME280_pressure;Samples;Min_cycle;Max_cycle;Signal;HPM_P1;HPM_P2
2022/12/24 00:00:23;;;;;;;8.02;4.90;;;;;;;7.64;100.00;97237.63;2623242;28;20097;-86
2022/12/24 00:01:59;;;;;;;7.43;4.50;;;;;;;8.12;100.00;97240.28;2620796;28;20063;-84
2022/12/24 00:03:14;;;;;;;5.93;4.10;;;;;;;7.53;100.00;97227.59;2622459;28;20051;-82
2022/12/24 00:04:30;;;;;;;8.70;5.07;;;;;;;7.77;100.00;97230.25;2621242;28;20411;-83
2022/12/24 00:05:46;;;;;;;8.80;5.07;;;;;;;7.62;100.00;97227.28;2622226;28;20051;-83
2022/12/24 00:07:02;;;;;;;11.07;5.15;;;;;;;7.43;100.00;97232.28;2621380;28;20044;-82
2022/12/24 00:08:17;;;;;;;11.70;6.57;;;;;;;7.63;100.00;97241.13;2622698;28;20059;-83
2022/12/24 00:09:33;;;;;;;11.07;6.20;;;;;;;7.95;100.00;97233.06;2619980;28;20079;-87
2022/12/24 00:10:53;;;;;;;10.80;6.15;;;;;;;8.31;100.00;97238.66;2620221;28;20617;-83
2022/12/24 00:12:09;;;;;;;9.80;5.05;;;;;;;8.51;100.00;97238.84;2623827;28;20521;-82
2022/12/24 00:13:24;;;;;;;8.15;5.22;;;;;;;8.65;100.00;97236.53;2621139;28;20052;-83
2022/12/24 00:14:40;;;;;;;7.80;4.72;;;;;;;8.60;100.00;97234.09;2622071;28;20063;-86
2022/12/24 00:15:55;;;;;;;5.90;3.20;;;;;;;8.78;100.00;97231.66;2621451;28;20052;-83
2022/12/24 00:17:11;;;;;;;9.55;5.28;;;;;;;8.86;100.00;97229.59;2622675;28;20056;-82
2022/12/24 00:18:27;;;;;;;9.43;4.60;;;;;;;8.89;100.00;97237.28;2620703;28;20056;-84
2022/12/24 00:19:42;;;;;;;6.70;4.40;;;;;;;8.48;100.00;97239.75;2620725;28;20055;-87
2022/12/24 00:20:58;;;;;;;7.13;3.55;;;;;;;8.54;100.00;97243.91;2622553;28;20052;-83
2022/12/24 00:22:14;;;;;;;8.27;4.18;;;;;;;8.38;100.00;97241.00;2621985;28;20154;-82
2022/12/24 00:23:29;;;;;;;6.47;3.70;;;;;;;8.95;100.00;97245.81;2622327;28;20441;-82
2022/12/24 00:24:45;;;;;;;7.00;4.15;;;;;;;9.27;100.00;97244.44;2620792;28;20129;-82
2022/12/24 00:26:01;;;;;;;10.85;4.03;;;;;;;9.41;100.00;97243.88;2622675;28;20055;-83
2022/12/24 00:27:16;;;;;;;7.47;4.13;;;;;;;9.34;100.00;97247.66;2622204;28;20059;-82
2022/12/24 00:28:32;;;;;;;6.53;3.78;;;;;;;9.68;100.00;97253.19;2622137;28;20048;-82
2022/12/24 00:29:48;;;;;;;6.18;3.17;;;;;;;9.53;100.00;97250.31;2621100;28;20257;-83
2022/12/24 00:31:08;;;;;;;4.78;3.20;;;;;;;9.76;100.00;97253.72;2621857;28;20113;-84
2022/12/24 00:32:24;;;;;;;5.72;3.17;;;;;;;9.50;100.00;97253.09;2621177;28;20079;-83
2022/12/24 00:33:39;;;;;;;5.78;3.20;;;;;;;9.74;100.00;97250.31;2620934;28;20048;-82
2022/12/24 00:34:55;;;;;;;5.55;3.40;;;;;;;9.78;100.00;97253.63;2619916;28;20052;-86
2022/12/24 00:36:11;;;;;;;4.75;3.00;;;;;;;9.80;100.00;97263.13;2622448;28;20048;-83
2022/12/24 00:37:26;;;;;;;4.28;2.40;;;;;;;9.77;100.00;97258.03;2622557;28;20048;-83
2022/12/24 00:38:43;;;;;;;4.97;2.60;;;;;;;9.94;100.00;97269.50;2622734;28;20053;-83
2022/12/24 00:39:58;;;;;;;5.50;2.75;;;;;;;10.08;100.00;97271.50;2621486;28;20529;-84
2022/12/24 00:41:24;;;;;;;4.32;2.45;;;;;;;10.14;100.00;97272.09;2620760;28;20044;-83
2022/12/24 00:42:39;;;;;;;3.80;2.10;;;;;;;10.29;100.00;97277.53;2621024;28;20268;-83
2022/12/24 00:44:10;;;;;;;3.33;1.95;;;;;;;10.32;100.00;97277.41;2621699;28;20052;-83
2022/12/24 00:45:26;;;;;;;3.00;1.70;;;;;;;9.98;100.00;97281.50;2622484;28;20131;-85
2022/12/24 00:46:42;;;;;;;4.72;1.77;;;;;;;9.79;100.00;97287.56;2619567;28;20434;-82
2022/12/24 00:47:58;;;;;;;2.92;1.70;;;;;;;9.95;100.00;97277.28;2619946;28;20360;-88
2022/12/24 00:49:14;;;;;;;3.53;1.38;;;;;;;9.68;100.00;97292.41;2622186;28;20055;-82
2022/12/24 00:50:29;;;;;;;3.05;1.80;;;;;;;9.73;100.00;97287.84;2621157;28;20057;-82
2022/12/24 00:51:45;;;;;;;3.97;2.03;;;;;;;9.83;100.00;97290.91;2620547;28;20052;-82
2022/12/24 00:53:01;;;;;;;4.05;2.13;;;;;;;9.69;100.00;97292.34;2622052;28;20052;-82
2022/12/24 00:54:16;;;;;;;2.30;1.55;;;;;;;9.67;100.00;97299.41;2620087;28;20502;-86
2022/12/24 00:55:32;;;;;;;7.25;2.15;;;;;;;9.75;100.00;97299.91;2622535;28;20182;-83
2022/12/24 00:56:47;;;;;;;4.07;2.10;;;;;;;9.77;100.00;97299.84;2620657;28;20618;-83
2022/12/24 00:58:03;;;;;;;4.10;2.40;;;;;;;9.67;100.00;97298.53;2621554;28;20155;-83
2022/12/24 00:59:18;;;;;;;3.80;1.95;;;;;;;9.76;100.00;97303.38;2620613;28;20052;-84
2022/12/24 01:00:34;;;;;;;2.70;1.50;;;;;;;9.63;100.00;97302.22;2621667;28;20075;-83
2022/12/24 01:01:50;;;;;;;3.30;1.27;;;;;;;9.57;100.00;97311.16;2620518;28;20040;-82
2022/12/24 01:03:05;;;;;;;3.47;1.40;;;;;;;9.54;100.00;97306.06;2622287;28;20097;-82
2022/12/24 01:05:56;;;;;;;2.30;1.33;;;;;;;9.57;100.00;97317.25;2622000;28;20882;-82
2022/12/24 01:07:12;;;;;;;2.65;1.25;;;;;;;9.65;100.00;97326.50;2621705;28;20043;-83
2022/12/24 01:08:28;;;;;;;2.80;0.95;;;;;;;9.58;100.00;97324.16;2622421;28;20066;-83
2022/12/24 01:09:43;;;;;;;1.20;0.70;;;;;;;9.73;100.00;97319.19;2620371;28;20075;-86
2022/12/24 01:11:00;;;;;;;0.73;0.70;;;;;;;9.86;100.00;97320.38;2622147;28;20059;-83
2022/12/24 01:12:16;;;;;;;1.13;0.60;;;;;;;10.00;100.00;97332.00;2622871;28;20044;-82
2022/12/24 01:13:32;;;;;;;1.02;0.68;;;;;;;10.17;100.00;97319.03;2621959;28;20063;-84
2022/12/24 01:14:47;;;;;;;1.10;0.60;;;;;;;10.19;100.00;97321.56;2621519;28;20047;-82
2022/12/24 01:16:15;;;;;;;1.00;0.70;;;;;;;10.38;100.00;97326.81;2620968;28;20297;-84
2022/12/24 01:17:32;;;;;;;1.30;0.52;;;;;;;10.16;100.00;97322.56;2620601;28;20045;-86
2022/12/24 01:18:47;;;;;;;1.25;0.85;;;;;;;10.35;100.00;97340.03;2620435;28;20417;-83
2022/12/24 01:20:04;;;;;;;3.85;0.80;;;;;;;10.37;100.00;97329.50;2620285;28;20051;-82
2022/12/24 01:21:20;;;;;;;2.03;1.00;;;;;;;10.35;100.00;97339.22;2622106;28;20092;-82
2022/12/24 01:22:36;;;;;;;1.02;0.70;;;;;;;10.21;100.00;97347.66;2619635;28;20609;-86
2022/12/24 01:23:52;;;;;;;1.80;0.60;;;;;;;10.24;100.00;97356.22;2622307;28;20105;-83
2022/12/24 01:25:08;;;;;;;3.13;0.70;;;;;;;10.37;100.00;97355.69;2622282;28;20139;-83
2022/12/24 01:26:24;;;;;;;2.63;0.80;;;;;;;10.38;100.00;97352.16;2621930;28;20093;-83
2022/12/24 01:27:40;;;;;;;1.02;0.70;;;;;;;10.26;100.00;97356.13;2622922;28;20056;-82
2022/12/24 01:28:56;;;;;;;2.40;0.80;;;;;;;10.39;100.00;97357.28;2621500;28;20674;-82
2022/12/24 01:30:13;;;;;;;1.63;0.80;;;;;;;10.27;100.00;97365.72;2622536;28;20128;-83
2022/12/24 01:31:29;;;;;;;0.75;0.65;;;;;;;10.18;100.00;97364.31;2620752;28;20063;-83
2022/12/24 01:32:45;;;;;;;0.93;0.63;;;;;;;10.15;100.00;97359.22;2621292;28;20056;-82
2022/12/24 01:34:00;;;;;;;0.70;0.50;;;;;;;10.36;100.00;97361.84;2619384;28;20052;-83
2022/12/24 01:35:16;;;;;;;1.85;0.88;;;;;;;10.28;100.00;97365.63;2619985;28;20494;-83
2022/12/24 01:36:32;;;;;;;1.33;0.52;;;;;;;10.35;100.00;97362.75;2622426;28;20083;-82
2022/12/24 01:37:48;;;;;;;2.35;0.68;;;;;;;10.19;100.00;97363.41;2621751;28;20419;-82
2022/12/24 01:39:03;;;;;;;2.45;0.60;;;;;;;10.26;100.00;97364.84;2622431;28;20067;-83
2022/12/24 01:43:31;;;;;;;1.20;0.63;;;;;;;10.16;100.00;97371.38;2620921;28;20048;-83
2022/12/24 01:44:51;;;;;;;1.17;0.68;;;;;;;10.20;100.00;97367.75;2620430;28;20047;-82
2022/12/24 01:46:15;;;;;;;1.05;0.70;;;;;;;10.06;100.00;97367.47;2621141;28;20451;-83
2022/12/24 01:47:30;;;;;;;1.05;0.60;;;;;;;10.00;100.00;97368.59;2621947;28;20130;-85
2022/12/24 01:48:51;;;;;;;3.03;0.70;;;;;;;10.08;100.00;97373.50;2620519;28;20048;-84
2022/12/24 01:50:16;;;;;;;3.70;0.70;;;;;;;10.18;100.00;97380.00;2620867;28;20418;-83
2022/12/24 01:51:57;;;;;;;1.90;1.08;;;;;;;10.28;100.00;97381.31;2621919;28;20397;-83
2022/12/24 01:53:14;;;;;;;1.67;0.77;;;;;;;10.32;100.00;97377.63;2618824;28;20080;-83
2022/12/24 01:54:38;;;;;;;3.47;1.10;;;;;;;10.15;100.00;97375.78;2621443;28;20045;-83
2022/12/24 01:55:54;;;;;;;2.25;0.60;;;;;;;10.35;100.00;97375.84;2620018;28;20052;-83
2022/12/24 01:57:17;;;;;;;0.77;0.52;;;;;;;10.09;100.00;97376.03;2621523;28;20424;-87
2022/12/24 01:58:35;;;;;;;2.63;0.85;;;;;;;10.25;100.00;97377.97;2623188;28;20131;-83
2022/12/24 01:59:56;;;;;;;2.17;0.70;;;;;;;10.31;100.00;97386.41;2621855;28;20108;-83
2022/12/24 02:01:12;;;;;;;2.67;0.60;;;;;;;10.39;100.00;97385.22;2622097;28;20052;-82
2022/12/24 02:02:28;;;;;;;4.03;0.80;;;;;;;10.38;100.00;97388.78;2623328;28;20059;-83
2022/12/24 02:03:44;;;;;;;2.33;0.70;;;;;;;10.36;100.00;97391.44;2618995;28;20140;-86
2022/12/24 02:05:05;;;;;;;1.55;0.68;;;;;;;10.43;100.00;97386.81;2621091;28;20049;-84
2022/12/24 02:06:22;;;;;;;1.13;0.50;;;;;;;10.34;100.00;97382.81;2619206;28;20051;-82
2022/12/24 02:07:38;;;;;;;1.58;0.65;;;;;;;10.23;100.00;97391.16;2619709;28;20687;-83
2022/12/24 02:08:54;;;;;;;2.00;0.80;;;;;;;10.37;100.00;97397.53;2622062;28;20935;-83
2022/12/24 02:10:12;;;;;;;1.60;0.60;;;;;;;10.41;100.00;97392.13;2622557;28;20055;-82
2022/12/24 02:11:29;;;;;;;2.53;0.63;;;;;;;10.20;100.00;97390.41;2621845;28;20106;-82
2022/12/24 02:12:46;;;;;;;5.50;0.90;;;;;;;10.25;100.00;97383.22;2622152;28;20056;-83
2022/12/24 02:14:02;;;;;;;1.70;0.88;;;;;;;10.09;100.00;97389.13;2621564;28;20518;-86
2022/12/24 02:15:19;;;;;;;0.95;0.70;;;;;;;10.22;100.00;97394.69;2624181;28;20061;-83
2022/12/24 02:17:10;;;;;;;3.15;0.70;;;;;;;10.10;100.00;97400.44;2621904;28;20052;-82
2022/12/24 02:18:37;;;;;;;1.38;0.80;;;;;;;10.28;100.00;97394.41;2620701;28;20052;-83
2022/12/24 02:20:16;;;;;;;2.50;0.90;;;;;;;10.60;100.00;97409.63;2622485;28;20075;-83
2022/12/24 02:21:45;;;;;;;3.47;0.90;;;;;;;10.08;100.00;97412.72;2621687;28;20052;-83
2022/12/24 02:23:32;;;;;;;5.25;0.95;;;;;;;10.03;100.00;97402.47;2623641;28;20051;-82
2022/12/24 02:25:15;;;;;;;3.72;0.60;;;;;;;10.17;100.00;97412.31;2622548;28;20134;-84
2022/12/24 02:27:02;;;;;;;2.72;0.68;;;;;;;10.21;100.00;97408.69;2623846;28;20047;-83
2022/12/24 02:28:51;;;;;;;2.58;0.65;;;;;;;10.12;100.00;97409.06;2621812;28;20056;-83
2022/12/24 02:30:33;;;;;;;2.00;0.80;;;;;;;9.94;100.00;97426.38;2622617;28;20544;-83
2022/12/24 02:31:56;;;;;;;2.10;0.60;;;;;;;9.88;100.00;97417.88;2618834;28;20048;-82
2022/12/24 02:33:24;;;;;;;3.67;0.80;;;;;;;9.98;100.00;97418.34;2622609;28;20055;-83
2022/12/24 02:34:50;;;;;;;3.88;1.10;;;;;;;9.99;100.00;97416.59;2623160;28;20143;-87
2022/12/24 02:36:13;;;;;;;3.03;0.75;;;;;;;10.16;100.00;97410.63;2621939;28;20143;-82
2022/12/24 02:37:36;;;;;;;2.00;0.75;;;;;;;10.02;100.00;97419.91;2624409;28;20437;-83
2022/12/24 02:39:00;;;;;;;1.45;0.70;;;;;;;10.21;100.00;97415.66;2622278;28;20048;-83
2022/12/24 02:40:37;;;;;;;2.83;0.80;;;;;;;10.15;100.00;97419.38;2624268;28;20090;-83
2022/12/24 02:42:04;;;;;;;1.77;0.70;;;;;;;10.17;100.00;97423.66;2622274;28;20098;-83
2022/12/24 02:43:25;;;;;;;1.75;0.68;;;;;;;10.13;100.00;97434.31;2621391;28;20048;-84
2022/12/24 02:44:48;;;;;;;1.80;0.55;;;;;;;10.09;100.00;97428.34;2623113;28;20071;-83
2022/12/24 02:46:14;;;;;;;0.50;0.50;;;;;;;9.94;100.00;97423.75;2621273;28;20052;-83
2022/12/24 02:47:31;;;;;;;2.22;1.02;;;;;;;9.84;100.00;97433.75;2622843;28;20082;-82
2022/12/24 02:48:48;;;;;;;3.50;0.63;;;;;;;9.93;100.00;97428.16;2623626;28;20072;-83
2022/12/24 02:50:07;;;;;;;0.70;0.55;;;;;;;9.96;100.00;97441.09;2623035;28;20051;-83
2022/12/24 02:51:23;;;;;;;2.22;0.90;;;;;;;9.95;100.00;97439.41;2622396;28;20170;-82
2022/12/24 02:52:44;;;;;;;1.05;0.60;;;;;;;9.94;100.00;97442.94;2622772;28;20547;-83
2022/12/24 02:53:59;;;;;;;1.50;0.88;;;;;;;9.97;100.00;97448.03;2623521;28;20467;-84
2022/12/24 02:55:18;;;;;;;6.60;1.00;;;;;;;10.15;100.00;97441.19;2622024;28;20052;-82
2022/12/24 02:56:49;;;;;;;2.65;0.77;;;;;;;10.07;100.00;97442.41;2622282;28;20052;-83
2022/12/24 02:58:19;;;;;;;3.42;1.02;;;;;;;10.12;100.00;97438.66;2622616;28;20071;-84
2022/12/24 02:59:50;;;;;;;2.05;1.02;;;;;;;10.04;100.00;97453.84;2622411;28;20471;-84
2022/12/24 03:01:18;;;;;;;2.55;0.90;;;;;;;10.30;100.00;97446.66;2622950;28;20049;-83
2022/12/24 03:02:49;;;;;;;6.85;1.02;;;;;;;10.26;100.00;97453.78;2623782;28;20052;-83
2022/12/24 03:04:11;;;;;;;5.13;1.20;;;;;;;10.20;100.00;97453.19;2621609;28;20057;-84
2022/12/24 03:05:43;;;;;;;2.70;0.98;;;;;;;10.08;100.00;97455.41;2623168;28;20102;-83
2022/12/24 03:07:05;;;;;;;4.35;0.95;;;;;;;10.19;100.00;97460.19;2621338;28;20049;-83
2022/12/24 03:08:56;;;;;;;1.17;0.50;;;;;;;10.17;100.00;97462.88;2622414;28;20048;-88
2022/12/24 03:10:21;;;;;;;2.13;0.77;;;;;;;10.20;100.00;97463.66;2621722;28;20650;-83
2022/12/24 03:11:44;;;;;;;3.58;0.82;;;;;;;10.32;100.00;97468.38;2620873;28;20049;-83
2022/12/24 03:13:06;;;;;;;2.20;0.85;;;;;;;10.11;100.00;97470.13;2621463;28;20094;-83
2022/12/24 03:14:22;;;;;;;7.32;0.80;;;;;;;10.21;100.00;97476.69;2622799;28;20311;-83
2022/12/24 03:15:38;;;;;;;3.35;0.77;;;;;;;10.40;100.00;97475.91;2620780;28;20067;-88
2022/12/24 03:16:57;;;;;;;2.95;0.88;;;;;;;10.33;100.00;97470.06;2623041;28;20475;-83
2022/12/24 03:18:19;;;;;;;2.75;1.27;;;;;;;10.12;100.00;97472.66;2620942;28;20041;-83
2022/12/24 03:19:35;;;;;;;;;;;;;;;10.24;100.00;97481.78;2621574;28;20414;-83
2022/12/24 03:21:04;;;;;;;1.88;0.70;;;;;;;10.08;100.00;97473.72;2622938;28;19927;-83
2022/12/24 03:22:21;;;;;;;2.78;0.68;;;;;;;10.17;100.00;97490.78;2622690;28;20051;-84
2022/12/24 03:23:37;;;;;;;4.40;0.93;;;;;;;10.38;100.00;97496.06;2620567;28;20131;-83
2022/12/24 03:24:52;;;;;;;2.80;1.08;;;;;;;10.08;100.00;97497.25;2622647;28;20040;-83
2022/12/24 03:26:11;;;;;;;2.58;0.80;;;;;;;10.26;100.00;97500.00;2624189;28;21124;-83
2022/12/24 03:27:29;;;;;;;2.78;0.65;;;;;;;10.28;100.00;97499.03;2623957;28;20102;-84
2022/12/24 03:28:45;;;;;;;3.53;0.88;;;;;;;10.34;100.00;97507.53;2623243;28;20048;-83
2022/12/24 03:30:03;;;;;;;4.45;0.80;;;;;;;10.28;100.00;97503.44;2620732;28;20151;-84
2022/12/24 03:31:19;;;;;;;4.60;1.08;;;;;;;10.39;100.00;97500.38;2623599;28;20131;-84
2022/12/24 03:32:35;;;;;;;2.75;1.05;;;;;;;10.16;100.00;97505.66;2621474;28;20080;-84
2022/12/24 03:33:51;;;;;;;6.13;0.80;;;;;;;10.14;100.00;97509.22;2624003;28;20064;-83
2022/12/24 03:35:07;;;;;;;4.57;0.85;;;;;;;10.18;100.00;97502.94;2620331;28;20053;-84
2022/12/24 03:36:24;;;;;;;2.22;0.80;;;;;;;10.24;100.00;97510.56;2620573;28;20148;-84
2022/12/24 03:37:39;;;;;;;2.97;0.60;;;;;;;10.38;100.00;97509.13;2622127;28;20048;-85
2022/12/24 03:38:55;;;;;;;2.70;0.85;;;;;;;10.35;100.00;97514.50;2620023;28;20068;-84
2022/12/24 03:40:11;;;;;;;4.07;1.20;;;;;;;10.51;100.00;97509.47;2621235;28;20045;-86
2022/12/24 03:41:27;;;;;;;1.17;0.65;;;;;;;10.38;100.00;97511.75;2620977;28;20415;-84
2022/12/24 03:42:42;;;;;;;3.08;0.88;;;;;;;10.45;100.00;97506.22;2621199;28;20052;-84
2022/12/24 03:43:58;;;;;;;3.25;0.75;;;;;;;10.45;100.00;97513.19;2621344;28;20459;-84
2022/12/24 03:45:13;;;;;;;3.08;0.90;;;;;;;10.39;100.00;97521.28;2622167;28;20040;-84
2022/12/24 03:46:29;;;;;;;2.70;0.88;;;;;;;10.31;100.00;97513.78;2621815;28;20094;-87
2022/12/24 03:47:45;;;;;;;2.40;1.00;;;;;;;10.33;100.00;97514.56;2622469;28;20055;-86
2022/12/24 03:49:00;;;;;;;5.93;0.93;;;;;;;10.16;100.00;97523.09;2623385;28;20052;-84
2022/12/24 03:50:16;;;;;;;4.22;0.90;;;;;;;10.29;100.00;97528.69;2620751;28;20044;-85
2022/12/24 03:51:32;;;;;;;4.55;1.23;;;;;;;10.47;100.00;97516.59;2620698;28;20176;-85
2022/12/24 03:52:47;;;;;;;2.88;0.80;;;;;;;10.30;100.00;97518.13;2620650;28;20064;-84
2022/12/24 03:54:03;;;;;;;5.78;1.90;;;;;;;10.22;100.00;97520.25;2621866;28;20044;-84
2022/12/24 03:55:18;;;;;;;2.38;0.98;;;;;;;10.45;100.00;97532.38;2624111;28;20074;-84
2022/12/24 03:56:34;;;;;;;2.65;0.80;;;;;;;10.46;100.00;97525.38;2622229;28;20048;-83
2022/12/24 03:57:50;;;;;;;2.92;0.60;;;;;;;10.21;100.00;97530.75;2622386;28;20075;-83
2022/12/24 03:59:05;;;;;;;3.30;1.15;;;;;;;10.29;100.00;97526.91;2623089;28;20052;-89
2022/12/24 04:00:21;;;;;;;5.22;0.70;;;;;;;10.31;100.00;97534.69;2622725;28;20055;-84
2022/12/24 04:01:37;;;;;;;3.17;0.75;;;;;;;10.19;100.00;97536.03;2619912;28;20055;-84
2022/12/24 04:02:52;;;;;;;2.53;0.60;;;;;;;10.00;100.00;97528.94;2620676;28;20044;-83
2022/12/24 04:04:08;;;;;;;2.65;0.80;;;;;;;10.03;100.00;97525.38;2621900;28;20070;-84
2022/12/24 04:05:23;;;;;;;1.98;1.10;;;;;;;10.03;100.00;97534.06;2621191;28;20628;-83
2022/12/24 04:06:39;;;;;;;4.72;0.90;;;;;;;9.98;100.00;97537.75;2620685;28;20381;-84
2022/12/24 04:07:55;;;;;;;4.22;0.80;;;;;;;9.99;100.00;97542.09;2622302;28;20051;-83
2022/12/24 04:09:10;;;;;;;2.55;0.50;;;;;;;9.95;100.00;97549.22;2621867;28;20044;-84
2022/12/24 04:10:26;;;;;;;2.72;0.90;;;;;;;10.07;100.00;97550.47;2623554;28;20055;-83
2022/12/24 04:11:42;;;;;;;4.53;0.80;;;;;;;10.20;100.00;97540.38;2622163;28;20066;-84
2022/12/24 04:12:57;;;;;;;2.47;0.90;;;;;;;10.08;100.00;97551.34;2623158;28;20052;-84
2022/12/24 04:14:13;;;;;;;2.13;0.70;;;;;;;9.96;100.00;97544.81;2622721;28;20071;-83
2022/12/24 04:15:28;;;;;;;3.65;0.70;;;;;;;10.03;100.00;97547.13;2620783;28;20474;-85
2022/12/24 04:16:44;;;;;;;2.25;0.80;;;;;;;10.00;100.00;97546.44;2621581;28;20052;-84
2022/12/24 04:18:00;;;;;;;6.95;1.27;;;;;;;10.03;100.00;97547.13;2620617;28;20048;-84
2022/12/24 04:19:15;;;;;;;2.15;1.02;;;;;;;10.06;100.00;97553.13;2622302;28;20418;-83
2022/12/24 04:20:31;;;;;;;2.75;1.00;;;;;;;10.12;100.00;97553.75;2620276;28;20091;-83
2022/12/24 04:21:47;;;;;;;1.20;0.60;;;;;;;9.88;100.00;97550.34;2621031;28;20087;-83
2022/12/24 04:23:02;;;;;;;4.20;1.35;;;;;;;9.86;100.00;97555.66;2621417;28;20050;-84
2022/12/24 04:24:18;;;;;;;2.05;0.70;;;;;;;9.81;100.00;97559.38;2621511;28;20056;-84
2022/12/24 04:25:33;;;;;;;8.27;1.25;;;;;;;9.89;100.00;97567.75;2620427;28;20078;-84
2022/12/24 04:26:49;;;;;;;1.77;0.73;;;;;;;9.89;100.00;97570.34;2621466;28;20389;-84
2022/12/24 04:28:04;;;;;;;6.40;0.93;;;;;;;9.80;100.00;97573.34;2621762;28;20053;-84
2022/12/24 04:29:20;;;;;;;5.95;0.70;;;;;;;9.76;100.00;97575.22;2622556;28;20060;-84
2022/12/24 04:30:37;;;;;;;2.55;0.82;;;;;;;9.83;100.00;97586.31;2620642;28;20597;-83
2022/12/24 04:31:53;;;;;;;2.83;0.95;;;;;;;9.81;100.00;97573.28;2621894;28;20080;-84
2022/12/24 04:33:09;;;;;;;3.50;0.73;;;;;;;9.89;100.00;97579.06;2620871;28;20057;-84
2022/12/24 04:34:25;;;;;;;2.90;0.98;;;;;;;9.91;100.00;97578.16;2622073;28;20139;-84
2022/12/24 04:35:41;;;;;;;4.35;0.90;;;;;;;9.83;100.00;97586.31;2620513;28;20045;-84
2022/12/24 04:36:57;;;;;;;3.85;0.90;;;;;;;9.84;100.00;97588.00;2622439;28;20131;-84
2022/12/24 04:38:12;;;;;;;5.43;0.98;;;;;;;9.83;100.00;97594.16;2621875;28;20086;-84
2022/12/24 04:39:28;;;;;;;2.00;0.80;;;;;;;9.85;100.00;97594.94;2622270;28;20059;-84
2022/12/24 04:40:44;;;;;;;3.40;1.23;;;;;;;9.82;100.00;97590.66;2620424;28;20048;-83
2022/12/24 04:42:00;;;;;;;5.10;1.13;;;;;;;9.88;100.00;97598.28;2620170;28;20056;-84
2022/12/24 04:43:15;;;;;;;2.90;1.27;;;;;;;9.87;100.00;97601.81;2621052;28;20407;-83
2022/12/24 04:44:31;;;;;;;4.70;0.77;;;;;;;9.96;100.00;97600.59;2621818;28;20040;-84
2022/12/24 04:45:46;;;;;;;7.82;1.02;;;;;;;9.75;100.00;97605.72;2620541;28;20056;-83
2022/12/24 04:47:02;;;;;;;2.83;0.88;;;;;;;9.76;100.00;97603.97;2620532;28;20102;-84
2022/12/24 04:48:18;;;;;;;3.53;0.80;;;;;;;9.82;100.00;97598.50;2620821;28;20086;-84
2022/12/24 04:49:33;;;;;;;4.05;0.93;;;;;;;9.91;100.00;97599.91;2623952;28;20044;-84
2022/12/24 04:50:49;;;;;;;5.68;1.20;;;;;;;10.27;100.00;97602.00;2620878;28;20052;-84
2022/12/24 04:52:04;;;;;;;2.47;1.15;;;;;;;9.97;100.00;97609.28;2619823;28;20169;-84
2022/12/24 04:53:20;;;;;;;6.82;1.50;;;;;;;9.73;100.00;97612.78;2620093;28;20086;-85
2022/12/24 04:54:35;;;;;;;4.70;1.02;;;;;;;9.67;100.00;97618.25;2621613;28;20048;-84
2022/12/24 04:55:51;;;;;;;4.95;1.10;;;;;;;9.74;100.00;97622.31;2621997;28;20059;-84
2022/12/24 04:57:07;;;;;;;1.33;0.80;;;;;;;9.89;100.00;97612.19;2621057;28;20047;-84
2022/12/24 04:58:23;;;;;;;3.22;1.05;;;;;;;9.69;100.00;97610.34;2621575;28;20074;-84
2022/12/24 04:59:38;;;;;;;3.45;0.90;;;;;;;9.69;100.00;97611.22;2620561;28;20091;-84
2022/12/24 05:00:54;;;;;;;4.25;0.90;;;;;;;9.79;100.00;97613.47;2619986;28;20457;-86
2022/12/24 05:02:10;;;;;;;4.40;0.93;;;;;;;9.48;100.00;97628.53;2620274;28;20051;-91
2022/12/24 05:03:26;;;;;;;4.72;1.08;;;;;;;9.66;100.00;97624.41;2622735;28;20056;-83
2022/12/24 05:04:41;;;;;;;2.78;0.90;;;;;;;9.67;100.00;97618.25;2620573;28;20137;-84
2022/12/24 05:06:05;;;;;;;2.40;0.73;;;;;;;9.43;100.00;97620.03;2621582;28;20062;-83
2022/12/24 05:07:21;;;;;;;1.50;0.70;;;;;;;9.54;100.00;97623.06;2622961;28;20117;-84
2022/12/24 05:08:37;;;;;;;4.35;1.25;;;;;;;9.74;100.00;97627.56;2620187;28;20087;-84
2022/12/24 05:09:53;;;;;;;2.47;0.47;;;;;;;9.58;100.00;97626.44;2622253;28;20135;-83
2022/12/24 05:11:13;;;;;;;5.45;1.05;;;;;;;9.64;100.00;97623.59;2623761;28;20147;-84
2022/12/24 05:12:28;;;;;;;1.95;0.70;;;;;;;9.63;100.00;97636.72;2620769;28;20055;-84
2022/12/24 05:13:44;;;;;;;4.38;1.38;;;;;;;9.56;100.00;97628.25;2620092;28;20346;-88
2022/12/24 05:15:00;;;;;;;2.03;0.75;;;;;;;9.59;100.00;97633.34;2622443;28;20055;-83
2022/12/24 05:16:18;;;;;;;2.67;0.57;;;;;;;9.62;100.00;97630.63;2621624;28;20044;-83
2022/12/24 05:17:34;;;;;;;5.07;1.25;;;;;;;9.51;100.00;97624.97;2620712;28;20052;-83
2022/12/24 05:18:50;;;;;;;3.33;0.90;;;;;;;9.55;100.00;97626.56;2620820;28;20048;-83
2022/12/24 05:20:06;;;;;;;4.15;0.60;;;;;;;9.49;100.00;97634.59;2622699;28;20412;-83
2022/12/24 05:21:23;;;;;;;3.17;0.73;;;;;;;9.70;100.00;97633.81;2623249;28;20072;-84
2022/12/24 05:26:25;;;;;;;2.05;0.50;;;;;;;9.53;100.00;97641.44;2589245;28;20264;-84
2022/12/24 05:27:41;;;;;;;1.58;0.90;;;;;;;9.50;100.00;97639.78;2589136;28;20643;-83
2022/12/24 05:28:59;;;;;;;2.42;1.40;;;;;;;9.45;100.00;97649.56;2589686;28;20132;-83
2022/12/24 05:30:14;;;;;;;3.15;0.80;;;;;;;9.40;100.00;97656.69;2590258;28;20053;-84
2022/12/24 05:31:32;;;;;;;2.00;0.93;;;;;;;9.34;100.00;97644.69;2601935;28;20064;-84
2022/12/24 05:32:48;;;;;;;2.13;0.57;;;;;;;9.33;100.00;97654.31;2620956;28;20076;-83
2022/12/24 05:34:03;;;;;;;2.83;0.70;;;;;;;9.32;100.00;97649.13;2619648;28;20410;-84
2022/12/24 05:35:19;;;;;;;3.40;0.90;;;;;;;9.31;100.00;97636.97;2621555;28;20502;-85
2022/12/24 05:36:35;;;;;;;2.55;0.95;;;;;;;9.40;100.00;97654.06;2620994;28;20067;-84
2022/12/24 05:37:50;;;;;;;5.03;0.95;;;;;;;9.50;100.00;97649.38;2621083;28;20502;-86
2022/12/24 05:39:06;;;;;;;1.70;0.70;;;;;;;9.35;100.00;97651.63;2621089;28;20075;-87
2022/12/24 05:40:21;;;;;;;2.50;0.88;;;;;;;9.49;100.00;97645.06;2620934;28;20049;-83
2022/12/24 05:41:37;;;;;;;3.65;1.38;;;;;;;9.54;100.00;97648.38;2619998;28;20132;-84
2022/12/24 05:42:53;;;;;;;3.05;0.85;;;;;;;9.55;100.00;97653.53;2620173;28;20050;-83
2022/12/24 05:44:09;;;;;;;2.58;0.93;;;;;;;9.56;100.00;97646.53;2623543;28;20052;-84
2022/12/24 05:45:24;;;;;;;3.25;0.60;;;;;;;9.50;100.00;97657.22;2624781;28;20395;-85
2022/12/24 05:46:40;;;;;;;4.85;1.10;;;;;;;9.59;100.00;97662.97;2623804;28;20143;-84
2022/12/24 05:47:56;;;;;;;4.25;1.02;;;;;;;9.69;100.00;97660.88;2621656;28;20052;-83
2022/12/24 05:49:12;;;;;;;5.97;0.90;;;;;;;9.50;100.00;97657.22;2623172;28;20600;-84
2022/12/24 05:50:27;;;;;;;3.65;0.95;;;;;;;9.42;100.00;97666.19;2622827;28;20052;-85
2022/12/24 05:51:43;;;;;;;4.35;0.85;;;;;;;9.32;100.00;97670.03;2622279;28;20080;-83
2022/12/24 05:52:59;;;;;;;2.17;1.10;;;;;;;9.42;100.00;97671.41;2622063;28;20060;-84
2022/12/24 05:54:14;;;;;;;3.55;1.20;;;;;;;9.39;100.00;97671.53;2623052;28;20087;-83
2022/12/24 05:55:30;;;;;;;4.53;1.10;;;;;;;9.26;100.00;97675.47;2622161;28;20048;-86
2022/12/24 05:56:45;;;;;;;2.80;0.57;;;;;;;9.32;100.00;97672.63;2621800;28;20387;-84
2022/12/24 05:58:01;;;;;;;4.85;0.70;;;;;;;9.25;100.00;97668.56;2622118;28;20052;-85
2022/12/24 05:59:17;;;;;;;2.17;0.80;;;;;;;9.26;100.00;97670.25;2623123;28;20135;-85
2022/12/24 06:00:32;;;;;;;2.22;0.82;;;;;;;9.30;100.00;97671.84;2622586;28;20426;-85
2022/12/24 06:01:48;;;;;;;2.42;0.80;;;;;;;9.31;100.00;97676.16;2625341;28;20067;-82
2022/12/24 06:03:04;;;;;;;3.47;0.93;;;;;;;9.33;100.00;97683.03;2623682;28;20083;-83
2022/12/24 06:04:19;;;;;;;1.98;0.80;;;;;;;9.25;100.00;97681.63;2622808;28;20368;-83
2022/12/24 06:05:36;;;;;;;3.38;0.90;;;;;;;9.23;100.00;97684.28;2623743;28;20059;-88
2022/12/24 06:06:51;;;;;;;4.35;1.42;;;;;;;9.25;100.00;97685.06;2624172;28;20041;-84
2022/12/24 06:08:07;;;;;;;3.45;0.90;;;;;;;9.22;100.00;97693.00;2622446;28;20073;-86
2022/12/24 06:09:22;;;;;;;3.92;1.60;;;;;;;9.24;100.00;97690.34;2623249;28;20045;-86
2022/12/24 06:10:38;;;;;;;5.93;1.58;;;;;;;9.37;100.00;97691.63;2621844;28;20491;-84
2022/12/24 06:11:54;;;;;;;1.45;0.80;;;;;;;9.21;100.00;97695.66;2623917;28;20052;-84
2022/12/24 06:13:09;;;;;;;4.30;1.00;;;;;;;9.31;100.00;97695.31;2623140;28;20544;-84
2022/12/24 06:14:25;;;;;;;6.03;1.20;;;;;;;9.27;100.00;97701.53;2623409;28;20086;-84